Time;durP1;ratioP1;P1;durP2;ratioP2;P2;SDS_P1;SDS_P2;PMS_P1;PMS_P2;Temp;Humidity;BMP_temperature;BMP_pressure;BME280_temperature;BME280_humidity;BME280_pressure;Samples;Min_cycle;Max_cycle;Signal;HPM_P1;HPM_P2
2022/11/10 07:43:34;;;;;;;7.25;2.13;;;9.30;99.90;;;;;;4892237;29;20064;-82
2022/11/10 07:46:01;;;;;;;6.10;1.85;;;9.30;99.90;;;;;;4895818;29;20056;-83
2022/11/10 07:48:27;;;;;;;9.00;2.22;;;9.40;99.90;;;;;;4895968;29;20052;-82
2022/11/10 07:50:54;;;;;;;4.13;1.90;;;9.40;99.90;;;;;;4895303;29;20054;-79
2022/11/10 07:53:21;;;;;;;4.25;1.83;;;9.30;99.90;;;;;;4896898;29;20060;-80
2022/11/10 07:55:48;;;;;;;5.57;2.50;;;9.40;99.90;;;;;;4895819;29;20059;-80
2022/11/10 07:58:17;;;;;;;5.80;2.13;;;9.40;99.90;;;;;;4892805;29;20048;-80
2022/11/10 08:00:45;;;;;;;8.30;3.45;;;9.40;99.90;;;;;;4909333;29;20510;-79
2022/11/10 08:03:20;;;;;;;10.63;3.08;;;9.40;99.90;;;;;;4895795;29;20051;-80
2022/11/10 08:05:47;;;;;;;3.97;2.92;;;9.50;99.90;;;;;;4898210;29;20131;-81
2022/11/10 08:08:14;;;;;;;4.88;2.88;;;9.50;99.90;;;;;;4901490;29;20063;-80
2022/11/10 08:10:41;;;;;;;11.23;3.50;;;9.50;99.90;;;;;;4898198;29;20052;-81
2022/11/10 08:13:10;;;;;;;9.32;3.85;;;9.50;99.90;;;;;;4892018;29;20501;-80
2022/11/10 08:15:38;;;;;;;7.85;3.00;;;9.60;99.90;;;;;;4897897;29;20052;-79
2022/11/10 08:18:11;;;;;;;8.63;3.45;;;9.60;99.90;;;;;;4900619;29;20049;-80
2022/11/10 08:20:38;;;;;;;9.63;2.90;;;9.60;99.90;;;;;;4900244;29;20056;-81
2022/11/10 08:23:05;;;;;;;10.18;3.50;;;9.70;99.90;;;;;;4901248;29;20146;-80
2022/11/10 08:25:34;;;;;;;8.77;2.75;;;9.70;99.90;;;;;;4899091;29;20052;-79
2022/11/10 08:28:08;;;;;;;8.75;2.58;;;9.80;99.90;;;;;;4896606;29;20052;-80
2022/11/10 08:30:36;;;;;;;12.18;3.25;;;9.70;99.90;;;;;;4895476;29;20056;-80
2022/11/10 08:33:04;;;;;;;7.25;3.47;;;9.80;99.90;;;;;;4896292;29;20056;-79
2022/11/10 08:35:35;;;;;;;10.23;3.47;;;9.90;99.90;;;;;;4899102;29;20104;-81
2022/11/10 08:38:13;;;;;;;12.93;3.35;;;9.90;99.90;;;;;;4916272;29;20048;-80
2022/11/10 08:40:41;;;;;;;7.13;2.83;;;9.90;99.90;;;;;;4913983;29;20048;-81
2022/11/10 08:43:08;;;;;;;7.93;2.72;;;10.00;99.90;;;;;;4900286;29;20052;-79
2022/11/10 08:45:37;;;;;;;9.77;3.00;;;10.00;99.90;;;;;;4898576;29;20053;-81
2022/11/10 08:48:15;;;;;;;13.07;3.05;;;10.10;99.90;;;;;;4897369;29;20059;-81
2022/11/10 08:50:42;;;;;;;8.45;3.08;;;10.10;99.90;;;;;;4896146;29;20132;-82
2022/11/10 08:53:12;;;;;;;6.88;2.90;;;10.10;99.90;;;;;;4898051;29;20097;-82
2022/11/10 08:55:39;;;;;;;8.30;3.10;;;10.20;99.90;;;;;;4897336;29;20059;-81
2022/11/10 08:58:08;;;;;;;9.38;2.30;;;10.20;99.90;;;;;;4895888;29;20576;-81
2022/11/10 09:00:35;;;;;;;12.93;2.55;;;10.20;99.90;;;;;;4892651;29;20061;-81
2022/11/10 09:03:07;;;;;;;9.15;2.28;;;10.30;99.90;;;;;;4913896;29;20076;-81
2022/11/10 09:05:34;;;;;;;10.15;2.15;;;10.30;99.90;;;;;;4897459;29;20056;-81
2022/11/10 09:08:02;;;;;;;8.70;2.25;;;10.40;99.90;;;;;;4910458;29;20053;-81
2022/11/10 09:10:34;;;;;;;9.27;1.90;;;10.50;99.90;;;;;;4911376;29;20049;-81
2022/11/10 09:13:02;;;;;;;6.15;1.92;;;10.50;99.90;;;;;;4895807;29;20060;-82
2022/11/10 09:15:30;;;;;;;8.57;1.73;;;10.50;99.90;;;;;;4896160;29;20056;-81
2022/11/10 09:17:58;;;;;;;12.52;1.90;;;10.60;99.90;;;;;;4898166;29;20063;-81
2022/11/10 09:20:26;;;;;;;5.28;1.63;;;10.70;99.90;;;;;;4895588;29;20128;-80
2022/11/10 09:22:53;;;;;;;6.18;1.65;;;10.70;99.90;;;;;;4895697;29;20041;-81
2022/11/10 09:25:21;;;;;;;7.07;2.03;;;10.70;99.90;;;;;;4900737;29;20395;-80
2022/11/10 09:27:47;;;;;;;5.95;1.75;;;10.80;99.90;;;;;;4896904;29;20049;-81
2022/11/10 09:30:14;;;;;;;7.60;1.85;;;10.80;99.90;;;;;;4908621;29;20053;-81
2022/11/10 09:32:45;;;;;;;8.07;1.92;;;10.90;99.90;;;;;;4899752;29;20526;-81
2022/11/10 09:35:12;;;;;;;4.93;1.30;;;10.90;99.90;;;;;;4899760;29;20080;-80
2022/11/10 09:37:39;;;;;;;6.78;1.30;;;10.90;99.90;;;;;;4898929;29;20052;-81
2022/11/10 09:40:16;;;;;;;8.27;1.65;;;11.00;99.90;;;;;;4899473;29;20132;-81
2022/11/10 09:42:44;;;;;;;8.05;1.75;;;11.00;99.90;;;;;;4902728;29;20052;-80
2022/11/10 09:45:22;;;;;;;8.73;1.50;;;11.10;99.90;;;;;;4900095;29;20045;-81
2022/11/10 09:47:51;;;;;;;4.40;1.30;;;11.10;99.90;;;;;;4904256;29;20067;-80
2022/11/10 09:50:28;;;;;;;8.30;1.98;;;11.20;99.90;;;;;;4900813;29;20426;-80
2022/11/10 09:52:56;;;;;;;5.70;2.03;;;11.20;99.90;;;;;;4903369;29;20056;-81
2022/11/10 09:55:29;;;;;;;6.97;1.02;;;11.30;99.90;;;;;;4903951;29;20702;-81
2022/11/10 09:57:58;;;;;;;8.25;1.63;;;11.30;99.90;;;;;;4915705;29;20052;-80
2022/11/10 10:00:27;;;;;;;10.45;1.50;;;11.40;99.90;;;;;;4901544;29;20155;-81
2022/11/10 10:05:50;;;;;;;6.10;1.80;;;11.50;99.90;;;;;;4873109;29;20064;-75
2022/11/10 10:08:39;;;;;;;5.38;1.45;;;11.50;99.90;;;;;;4878710;29;20056;-77
2022/11/10 10:11:39;;;;;;;5.93;1.30;;;11.60;99.90;;;;;;4907264;29;20060;-76
2022/11/10 10:14:20;;;;;;;;;;;11.60;99.90;;;;;;4876834;29;20052;-77
2022/11/10 10:17:03;;;;;;;;;;;11.70;99.90;;;;;;4876979;29;19931;-76
2022/11/10 10:19:43;;;;;;;5.45;1.58;;;11.70;99.90;;;;;;4875450;29;19927;-74
2022/11/10 10:22:13;;;;;;;2.78;1.33;;;11.80;99.90;;;;;;4871922;29;20696;-75
2022/11/10 10:24:40;;;;;;;8.52;1.50;;;11.80;99.90;;;;;;4878911;29;20053;-75
2022/11/10 10:27:11;;;;;;;5.50;1.17;;;11.80;99.90;;;;;;4875389;29;20049;-77
2022/11/10 10:29:48;;;;;;;4.47;1.08;;;11.90;99.90;;;;;;4875979;29;20423;-74
2022/11/10 10:32:16;;;;;;;7.82;1.25;;;11.90;99.90;;;;;;4878441;29;20493;-75
2022/11/10 10:34:44;;;;;;;23.80;7.45;;;11.90;99.90;;;;;;4878939;29;20053;-76
2022/11/10 10:37:38;;;;;;;11.55;3.30;;;12.00;99.90;;;;;;4877887;29;20052;-76
2022/11/10 10:40:05;;;;;;;13.13;2.67;;;12.10;99.90;;;;;;4874263;29;20640;-76
2022/11/10 10:42:35;;;;;;;8.90;1.73;;;12.10;99.90;;;;;;4873433;29;20059;-75
2022/11/10 10:45:18;;;;;;;7.47;2.47;;;12.10;99.90;;;;;;4871159;29;20061;-77
2022/11/10 10:47:48;;;;;;;5.93;1.35;;;12.10;99.90;;;;;;4872468;29;20048;-76
2022/11/10 10:50:25;;;;;;;7.40;1.70;;;12.10;99.90;;;;;;4873746;29;20057;-77
2022/11/10 10:53:20;;;;;;;8.05;1.52;;;12.10;99.90;;;;;;4879549;29;20167;-77
2022/11/10 10:55:53;;;;;;;5.68;1.80;;;12.20;99.90;;;;;;4872119;29;20045;-77
2022/11/10 10:58:21;;;;;;;6.47;1.73;;;12.20;99.90;;;;;;4880976;29;20113;-76
2022/11/10 11:00:53;;;;;;;6.85;1.23;;;12.20;99.90;;;;;;4885008;29;20053;-76
2022/11/10 11:03:38;;;;;;;5.88;1.38;;;12.20;99.90;;;;;;4880620;29;20057;-76
2022/11/10 11:06:14;;;;;;;5.32;1.38;;;12.20;99.90;;;;;;4874945;29;20045;-77
2022/11/10 11:08:57;;;;;;;8.27;2.38;;;12.30;99.90;;;;;;4874629;29;20069;-77
2022/11/10 11:11:32;;;;;;;6.88;1.70;;;12.30;99.90;;;;;;4890618;29;20067;-76
2022/11/10 11:14:25;;;;;;;9.90;1.35;;;12.30;99.90;;;;;;4873784;29;20052;-75
2022/11/10 11:16:53;;;;;;;7.15;1.25;;;12.30;99.90;;;;;;4890444;29;20053;-75
2022/11/10 11:19:25;;;;;;;12.73;1.60;;;12.30;99.90;;;;;;4876404;29;20045;-75
2022/11/10 11:22:29;;;;;;;9.13;1.75;;;12.40;99.90;;;;;;4884357;29;20053;-76
2022/11/10 11:25:27;;;;;;;7.20;1.30;;;12.40;99.90;;;;;;4876114;29;20049;-74
2022/11/10 11:28:39;;;;;;;4.35;1.27;;;12.40;99.90;;;;;;4877714;29;20065;-76
2022/11/10 11:31:41;;;;;;;8.27;2.50;;;12.50;99.90;;;;;;4876719;29;20065;-77
2022/11/10 11:34:11;;;;;;;6.03;1.27;;;12.50;99.90;;;;;;4878133;29;20083;-75
2022/11/10 11:37:09;;;;;;;3.60;1.33;;;12.60;99.90;;;;;;4881458;29;20061;-77
2022/11/10 11:40:07;;;;;;;4.97;1.60;;;12.50;99.90;;;;;;4875813;29;20053;-76
2022/11/10 11:42:58;;;;;;;4.93;1.40;;;12.60;99.90;;;;;;4879071;29;20052;-76
2022/11/10 11:45:31;;;;;;;9.05;1.80;;;12.60;99.90;;;;;;4883636;29;20064;-77
2022/11/10 11:48:25;;;;;;;7.45;1.63;;;12.70;99.90;;;;;;4878189;29;20053;-76
2022/11/10 11:51:27;;;;;;;7.25;1.50;;;12.70;99.90;;;;;;4875026;29;20076;-76
2022/11/10 11:54:10;;;;;;;5.50;1.67;;;12.70;99.90;;;;;;4876006;29;20570;-76
2022/11/10 11:56:46;;;;;;;5.45;1.50;;;12.70;99.90;;;;;;4877099;29;20521;-77
2022/11/10 11:59:22;;;;;;;6.13;1.38;;;12.80;99.90;;;;;;4878896;29;20132;-77
2022/11/10 12:02:20;;;;;;;4.32;1.40;;;12.80;99.90;;;;;;4879253;29;20460;-76
2022/11/10 12:05:07;;;;;;;6.43;1.63;;;12.90;99.90;;;;;;4877505;29;20132;-76
2022/11/10 12:07:57;;;;;;;5.95;1.50;;;12.90;99.90;;;;;;4878552;29;20056;-77
2022/11/10 12:10:35;;;;;;;6.22;1.83;;;12.90;99.90;;;;;;4892882;29;20072;-75
2022/11/10 12:13:29;;;;;;;3.45;1.58;;;12.90;99.90;;;;;;4872968;29;20053;-76
2022/11/10 12:16:20;;;;;;;10.13;1.63;;;13.00;99.90;;;;;;4879632;29;20057;-80
2022/11/10 12:19:14;;;;;;;7.05;1.50;;;13.00;99.90;;;;;;4879084;29;20529;-75
2022/11/10 12:22:23;;;;;;;6.72;1.65;;;12.90;99.90;;;;;;4877582;29;20053;-76
2022/11/10 12:25:26;;;;;;;7.43;1.95;;;13.00;99.90;;;;;;4825815;29;20475;-75
2022/11/10 12:28:16;;;;;;;6.38;2.10;;;13.00;99.90;;;;;;4876575;29;20049;-76
2022/11/10 12:30:44;;;;;;;8.02;1.67;;;12.90;99.90;;;;;;4872166;29;20048;-75
2022/11/10 12:33:46;;;;;;;5.15;1.60;;;12.90;99.90;;;;;;4881592;29;20466;-75
2022/11/10 12:36:17;;;;;;;8.68;1.33;;;13.00;99.90;;;;;;4879354;29;20049;-74
2022/11/10 12:39:16;;;;;;;8.60;1.80;;;13.00;99.90;;;;;;4879485;29;20045;-75
2022/11/10 12:41:56;;;;;;;9.60;1.63;;;13.00;99.90;;;;;;4881740;29;20088;-76
2022/11/10 12:44:33;;;;;;;6.78;1.48;;;13.00;99.90;;;;;;4877637;29;20053;-77
2022/11/10 12:47:04;;;;;;;7.85;1.85;;;13.00;99.90;;;;;;4875067;29;20529;-77
2022/11/10 12:49:40;;;;;;;6.45;1.65;;;13.10;99.90;;;;;;4880290;29;20464;-75
2022/11/10 12:52:22;;;;;;;12.00;2.95;;;13.10;99.90;;;;;;4878130;29;20558;-76
2022/11/10 12:54:48;;;;;;;4.22;1.42;;;13.10;99.90;;;;;;4884287;29;20515;-75
2022/11/10 12:57:20;;;;;;;11.38;1.70;;;13.20;99.90;;;;;;4884039;29;20057;-75
2022/11/10 13:00:01;;;;;;;5.00;1.55;;;13.20;99.90;;;;;;4879296;29;20059;-77
2022/11/10 13:02:41;;;;;;;5.18;1.58;;;13.30;99.90;;;;;;4875876;29;20507;-77
2022/11/10 13:05:28;;;;;;;8.07;1.75;;;13.30;99.90;;;;;;4880550;29;20071;-77
2022/11/10 13:08:22;;;;;;;6.40;1.73;;;13.40;99.90;;;;;;4878313;29;20053;-76
2022/11/10 13:10:53;;;;;;;7.38;2.05;;;13.40;99.90;;;;;;4879772;29;20534;-76
2022/11/10 13:13:21;;;;;;;10.65;2.47;;;13.40;99.90;;;;;;4880633;29;20072;-77
2022/11/10 13:15:54;;;;;;;6.82;2.17;;;13.40;99.90;;;;;;4880587;29;20044;-76
2022/11/10 13:18:30;;;;;;;11.43;2.30;;;13.40;99.90;;;;;;4879290;29;20071;-76
2022/11/10 13:20:58;;;;;;;6.40;2.08;;;13.40;99.90;;;;;;4880398;29;20053;-77
2022/11/10 13:23:47;;;;;;;6.53;1.95;;;13.40;99.90;;;;;;4880234;29;20053;-76
2022/11/10 13:26:39;;;;;;;11.23;2.33;;;13.40;99.90;;;;;;4878600;29;20098;-75
2022/11/10 13:29:33;;;;;;;11.05;1.90;;;13.40;99.90;;;;;;4879564;29;20053;-77
2022/11/10 13:32:06;;;;;;;6.95;1.60;;;13.40;99.90;;;;;;4880413;29;20506;-76
2022/11/10 13:34:37;;;;;;;6.93;2.00;;;13.40;99.90;;;;;;4878839;29;20056;-77
2022/11/10 13:37:44;;;;;;;7.85;1.90;;;13.40;99.90;;;;;;4880375;29;20049;-76
2022/11/10 13:40:19;;;;;;;7.40;1.58;;;13.40;99.90;;;;;;4890872;29;20046;-77
2022/11/10 13:42:58;;;;;;;13.57;1.95;;;13.40;99.90;;;;;;4880151;29;20049;-77
2022/11/10 13:45:38;;;;;;;12.95;2.03;;;13.30;99.90;;;;;;4879046;29;20052;-77
2022/11/10 13:48:11;;;;;;;5.13;1.90;;;13.40;99.90;;;;;;4877619;29;20049;-76
2022/11/10 13:50:40;;;;;;;16.73;2.75;;;13.40;99.90;;;;;;4878530;29;20057;-77
2022/11/10 13:53:16;;;;;;;9.82;3.08;;;13.30;99.90;;;;;;4880254;29;20064;-76
2022/11/10 13:55:59;;;;;;;5.25;2.10;;;13.30;99.90;;;;;;4878785;29;20057;-77
2022/11/10 13:58:32;;;;;;;8.43;2.22;;;13.40;99.90;;;;;;4877432;29;20053;-77
2022/11/10 14:01:17;;;;;;;7.97;2.30;;;13.40;99.90;;;;;;4878711;29;20048;-77
2022/11/10 14:03:44;;;;;;;13.90;2.90;;;13.40;99.90;;;;;;4876128;29;20073;-78
2022/11/10 14:06:21;;;;;;;10.05;2.15;;;13.40;99.90;;;;;;4878041;29;20463;-77
2022/11/10 14:09:12;;;;;;;5.40;1.90;;;13.40;99.90;;;;;;4877305;29;20503;-76
2022/11/10 14:11:50;;;;;;;8.85;2.00;;;13.40;99.90;;;;;;4877595;29;20053;-77
2022/11/10 14:14:20;;;;;;;9.95;2.13;;;13.40;99.90;;;;;;4874831;29;20056;-76
2022/11/10 14:16:48;;;;;;;9.90;1.90;;;13.40;99.90;;;;;;4878301;29;20056;-78
2022/11/10 14:19:22;;;;;;;6.18;1.83;;;13.40;99.90;;;;;;4879299;29;20097;-77
2022/11/10 14:21:53;;;;;;;8.95;1.65;;;13.40;99.90;;;;;;4883481;29;20416;-78
2022/11/10 14:24:34;;;;;;;6.63;1.80;;;13.40;99.90;;;;;;4879608;29;20044;-77
2022/11/10 14:27:07;;;;;;;6.32;1.55;;;13.30;99.90;;;;;;4873674;29;20053;-77
2022/11/10 14:29:39;;;;;;;4.25;1.60;;;13.30;99.90;;;;;;4878209;29;20057;-79
2022/11/10 14:32:20;;;;;;;5.35;1.75;;;13.30;99.90;;;;;;4869555;29;20064;-76
2022/11/10 14:34:49;;;;;;;3.85;1.60;;;13.30;99.90;;;;;;4875919;29;20419;-76
2022/11/10 14:37:23;;;;;;;6.15;1.33;;;13.20;99.90;;;;;;4875642;29;20535;-78
2022/11/10 14:39:55;;;;;;;6.07;1.60;;;13.20;99.90;;;;;;4870124;29;20683;-77
2022/11/10 14:42:29;;;;;;;3.85;1.50;;;13.20;99.90;;;;;;4878914;29;20053;-76
2022/11/10 14:45:14;;;;;;;7.60;2.05;;;13.20;99.90;;;;;;4877877;29;20495;-76
2022/11/10 14:47:41;;;;;;;12.98;2.13;;;13.20;99.90;;;;;;4876265;29;20053;-77
2022/11/10 14:50:19;;;;;;;6.78;1.95;;;13.20;99.90;;;;;;4879090;29;20061;-77
2022/11/10 14:52:49;;;;;;;5.10;1.67;;;13.20;99.90;;;;;;4875375;29;20524;-77
2022/11/10 14:55:18;;;;;;;7.63;1.73;;;13.20;99.90;;;;;;4876242;29;20056;-77
2022/11/10 14:57:52;;;;;;;6.57;1.70;;;13.20;99.90;;;;;;4877006;29;20064;-77
2022/11/10 15:00:24;;;;;;;8.52;1.42;;;13.20;99.90;;;;;;4875249;29;20526;-76
2022/11/10 15:02:56;;;;;;;10.70;1.60;;;13.10;99.90;;;;;;4876790;29;20053;-77
2022/11/10 15:05:24;;;;;;;12.35;2.85;;;13.10;99.90;;;;;;4878235;29;20041;-77
2022/11/10 15:07:54;;;;;;;8.85;2.50;;;13.10;99.90;;;;;;4878624;29;20052;-77
2022/11/10 15:10:39;;;;;;;9.05;1.63;;;13.10;99.90;;;;;;4877256;29;20057;-77
2022/11/10 15:13:18;;;;;;;8.57;1.55;;;13.10;99.90;;;;;;4876016;29;20057;-77
2022/11/10 15:15:45;;;;;;;4.23;1.60;;;13.00;99.90;;;;;;4878353;29;20079;-77
2022/11/10 15:18:28;;;;;;;5.93;1.73;;;13.00;99.90;;;;;;4878665;29;20341;-77
2022/11/10 15:21:03;;;;;;;7.95;3.08;;;13.00;99.90;;;;;;4874519;29;20053;-75
2022/11/10 15:23:36;;;;;;;9.90;2.28;;;13.00;99.90;;;;;;4877089;29;20057;-76
2022/11/10 15:26:05;;;;;;;6.43;2.50;;;12.90;99.90;;;;;;4873357;29;20048;-76
2022/11/10 15:28:34;;;;;;;9.00;2.45;;;12.90;99.90;;;;;;4875519;29;20059;-77
2022/11/10 15:31:05;;;;;;;15.82;2.20;;;12.80;99.90;;;;;;4877324;29;20053;-77
2022/11/10 15:33:34;;;;;;;15.65;2.67;;;12.80;99.90;;;;;;4877075;29;20052;-76
2022/11/10 15:36:16;;;;;;;9.88;2.63;;;12.80;99.90;;;;;;4877695;29;20076;-77
2022/11/10 15:38:43;;;;;;;16.27;5.68;;;12.70;99.90;;;;;;4878777;29;20454;-76
2022/11/10 15:41:21;;;;;;;32.92;15.57;;;12.70;99.90;;;;;;4876274;29;20069;-75
2022/11/10 15:43:53;;;;;;;27.05;11.57;;;12.60;99.90;;;;;;4875296;29;20045;-77
2022/11/10 15:46:23;;;;;;;20.98;9.80;;;12.60;99.90;;;;;;4874667;29;20049;-77
2022/11/10 15:48:51;;;;;;;17.48;5.45;;;12.50;99.90;;;;;;4876981;29;20056;-77
2022/11/10 15:51:19;;;;;;;30.17;13.07;;;12.50;99.90;;;;;;4875697;29;20057;-75
2022/11/10 15:53:53;;;;;;;23.08;12.02;;;12.40;99.90;;;;;;4876350;29;20088;-77
2022/11/10 15:56:21;;;;;;;29.30;14.23;;;12.30;99.90;;;;;;4876648;29;20056;-76
2022/11/10 15:58:52;;;;;;;15.18;9.35;;;12.30;99.90;;;;;;4877290;29;20060;-77
2022/11/10 16:01:26;;;;;;;10.18;4.63;;;12.30;99.90;;;;;;4872932;29;20057;-76
2022/11/10 16:03:54;;;;;;;8.77;3.22;;;12.20;99.90;;;;;;4874690;29;20056;-75
2022/11/10 16:06:20;;;;;;;7.78;3.17;;;12.20;99.90;;;;;;4877031;29;20045;-76
2022/11/10 16:08:47;;;;;;;10.50;3.13;;;12.10;99.90;;;;;;4876417;29;20045;-77
2022/11/10 16:11:19;;;;;;;7.15;2.72;;;12.00;99.90;;;;;;4860875;29;20054;-77
2022/11/10 16:13:49;;;;;;;10.45;3.05;;;12.00;99.90;;;;;;4869868;29;20059;-77
2022/11/10 16:16:17;;;;;;;17.95;7.15;;;11.90;99.90;;;;;;4895251;29;20073;-77
2022/11/10 16:18:45;;;;;;;13.73;7.35;;;11.90;99.90;;;;;;4875843;29;20049;-76
2022/11/10 16:21:13;;;;;;;12.68;4.97;;;11.80;99.90;;;;;;4876360;29;20721;-76
2022/11/10 16:23:40;;;;;;;12.70;5.63;;;11.80;99.90;;;;;;4877758;29;20049;-77
2022/11/10 16:26:12;;;;;;;11.57;4.28;;;11.70;99.90;;;;;;4879388;29;20057;-76
2022/11/10 16:28:42;;;;;;;5.95;3.25;;;11.70;99.90;;;;;;4877940;29;20057;-74
2022/11/10 16:31:10;;;;;;;10.25;3.63;;;11.60;99.90;;;;;;4878804;29;20109;-76
2022/11/10 16:33:37;;;;;;;9.63;4.03;;;11.60;99.90;;;;;;4877976;29;20109;-77
2022/11/10 16:36:04;;;;;;;14.55;3.35;;;11.50;99.90;;;;;;4893450;29;20052;-76
2022/11/10 16:38:31;;;;;;;8.60;3.22;;;11.50;99.90;;;;;;4876725;29;20060;-77
2022/11/10 16:41:00;;;;;;;8.98;3.65;;;11.40;99.90;;;;;;4880170;29;20045;-75
2022/11/10 16:43:28;;;;;;;9.63;2.78;;;11.40;99.90;;;;;;4876800;29;20064;-75
2022/11/10 16:45:59;;;;;;;7.75;3.42;;;11.40;99.90;;;;;;4875995;29;20050;-76
2022/11/10 16:48:29;;;;;;;10.57;3.58;;;11.30;99.90;;;;;;4883524;29;20053;-75
2022/11/10 16:50:57;;;;;;;13.35;5.03;;;11.30;99.90;;;;;;4871661;29;20056;-77
2022/11/10 16:53:27;;;;;;;8.63;4.07;;;11.20;99.90;;;;;;4875357;29;20061;-76
2022/11/10 16:55:53;;;;;;;10.80;3.45;;;11.20;99.90;;;;;;4875755;29;20063;-73
2022/11/10 16:58:22;;;;;;;12.15;3.45;;;11.10;99.90;;;;;;4877095;29;20061;-76
2022/11/10 17:00:50;;;;;;;9.73;4.23;;;11.10;99.90;;;;;;4868388;29;20045;-76
2022/11/10 17:03:22;;;;;;;8.93;4.63;;;11.10;99.90;;;;;;4875772;29;20296;-76
2022/11/10 17:05:49;;;;;;;18.55;7.05;;;11.00;99.90;;;;;;4877703;29;20049;-76
2022/11/10 17:08:28;;;;;;;10.38;4.90;;;10.90;99.90;;;;;;4862216;29;20060;-75
2022/11/10 17:10:55;;;;;;;8.15;4.85;;;10.90;99.90;;;;;;4874569;29;20057;-76
2022/11/10 17:13:23;;;;;;;13.20;5.10;;;10.80;99.90;;;;;;4871726;29;20183;-75
2022/11/10 17:15:52;;;;;;;9.18;4.25;;;10.80;99.90;;;;;;4876218;29;20053;-75
2022/11/10 17:18:22;;;;;;;6.65;3.60;;;10.80;99.90;;;;;;4866760;29;20053;-74
2022/11/10 17:20:51;;;;;;;7.38;3.28;;;10.80;99.90;;;;;;4871721;29;20431;-77
2022/11/10 17:23:23;;;;;;;6.97;2.50;;;10.70;99.90;;;;;;4880473;29;20053;-77
2022/11/10 17:25:52;;;;;;;7.45;3.30;;;10.70;99.90;;;;;;4878707;29;20053;-77
2022/11/10 17:28:19;;;;;;;8.98;3.45;;;10.70;99.90;;;;;;4880538;29;20415;-76
2022/11/10 17:30:46;;;;;;;10.82;3.67;;;10.70;99.90;;;;;;4879129;29;20064;-76
2022/11/10 17:33:13;;;;;;;11.07;4.47;;;10.70;99.90;;;;;;4876280;29;20065;-76
2022/11/10 17:35:45;;;;;;;11.32;4.35;;;10.70;99.90;;;;;;4875444;29;20408;-76
2022/11/10 17:38:21;;;;;;;11.40;3.53;;;10.60;99.90;;;;;;4878993;29;20061;-74
2022/11/10 17:40:48;;;;;;;7.68;3.53;;;10.60;99.90;;;;;;4875819;29;20654;-75
2022/11/10 17:43:14;;;;;;;8.80;3.30;;;10.50;99.90;;;;;;4865360;29;20124;-74
2022/11/10 17:45:41;;;;;;;9.23;4.10;;;10.50;99.90;;;;;;4869067;29;20053;-74
2022/11/10 17:48:08;;;;;;;9.38;4.07;;;10.50;99.90;;;;;;4875835;29;20063;-77
2022/11/10 17:50:37;;;;;;;6.93;3.33;;;10.50;99.90;;;;;;4877475;29;20057;-76
2022/11/10 17:53:21;;;;;;;12.30;4.85;;;10.50;99.90;;;;;;4866464;29;20058;-75
2022/11/10 17:55:48;;;;;;;4.47;3.08;;;10.50;99.90;;;;;;4876590;29;20063;-77
2022/11/10 17:58:16;;;;;;;10.23;3.40;;;10.50;99.90;;;;;;4870822;29;20049;-77
2022/11/10 18:00:44;;;;;;;10.52;3.50;;;10.40;99.90;;;;;;4874295;29;20071;-77
2022/11/10 18:03:19;;;;;;;9.57;4.22;;;10.40;99.90;;;;;;4878083;29;20049;-77
2022/11/10 18:05:47;;;;;;;8.55;3.70;;;10.40;99.90;;;;;;4888782;29;20141;-75
2022/11/10 18:08:15;;;;;;;9.52;3.28;;;10.40;99.90;;;;;;4875464;29;20065;-74
2022/11/10 18:10:46;;;;;;;4.82;2.90;;;10.30;99.90;;;;;;4877935;29;20061;-77
2022/11/10 18:13:14;;;;;;;6.90;3.05;;;10.30;99.90;;;;;;4878120;29;20511;-77
2022/11/10 18:15:42;;;;;;;8.25;2.95;;;10.30;99.90;;;;;;4878154;29;20049;-74
2022/11/10 18:18:13;;;;;;;7.55;2.83;;;10.30;99.90;;;;;;4879288;29;20488;-77
2022/11/10 18:20:41;;;;;;;7.47;3.30;;;10.20;99.90;;;;;;4879143;29;20068;-75
2022/11/10 18:23:10;;;;;;;7.95;3.17;;;10.20;99.90;;;;;;4879032;29;20049;-76
2022/11/10 18:25:38;;;;;;;4.55;2.85;;;10.20;99.90;;;;;;4876574;29;20069;-75
2022/11/10 18:28:05;;;;;;;6.18;2.50;;;10.20;99.90;;;;;;4877644;29;20060;-74
2022/11/10 18:30:33;;;;;;;8.60;2.38;;;10.10;99.90;;;;;;4877976;29;20063;-75
2022/11/10 18:33:02;;;;;;;9.48;3.15;;;10.10;99.90;;;;;;4878546;29;20056;-76
2022/11/10 18:35:28;;;;;;;13.80;3.20;;;10.10;99.90;;;;;;4877799;29;20064;-76
2022/11/10 18:37:57;;;;;;;9.10;3.35;;;10.10;99.90;;;;;;4873161;29;20469;-76
2022/11/10 18:40:24;;;;;;;6.18;3.78;;;10.10;99.90;;;;;;4863681;29;20061;-75
2022/11/10 18:42:54;;;;;;;9.80;3.47;;;10.10;99.90;;;;;;4874391;29;20053;-75
2022/11/10 18:45:20;;;;;;;9.07;4.18;;;10.10;99.90;;;;;;4878951;29;20147;-74
2022/11/10 18:47:47;;;;;;;6.60;2.47;;;10.10;99.90;;;;;;4879275;29;20056;-75
2022/11/10 18:50:14;;;;;;;6.65;3.03;;;10.00;99.90;;;;;;4868519;29;20053;-74
2022/11/10 18:52:40;;;;;;;5.38;2.28;;;10.00;99.90;;;;;;4878619;29;20052;-76
2022/11/10 18:55:08;;;;;;;5.22;2.25;;;10.00;99.90;;;;;;4876852;29;20053;-75
2022/11/10 18:57:35;;;;;;;8.18;3.00;;;9.90;99.90;;;;;;4874711;29;20064;-76
2022/11/10 19:00:04;;;;;;;4.55;2.20;;;10.00;99.90;;;;;;4873355;29;20522;-77
2022/11/10 19:02:30;;;;;;;5.28;2.42;;;9.90;99.90;;;;;;4892141;23;21166;-77
2022/11/10 19:04:57;;;;;;;6.82;2.30;;;9.90;99.90;;;;;;4888507;29;20399;-79
2022/11/10 19:07:24;;;;;;;8.65;2.42;;;9.90;99.90;;;;;;4892737;29;20108;-79
2022/11/10 19:09:50;;;;;;;5.93;2.10;;;9.80;99.90;;;;;;4884820;29;20049;-79
2022/11/10 19:12:17;;;;;;;5.15;2.38;;;9.80;99.90;;;;;;4890824;29;20120;-78
2022/11/10 19:14:51;;;;;;;6.50;2.80;;;9.80;99.90;;;;;;4884811;29;20534;-79
2022/11/10 19:17:18;;;;;;;9.40;3.13;;;9.80;99.90;;;;;;4889989;29;20511;-78
2022/11/10 19:19:45;;;;;;;6.57;3.20;;;9.80;99.90;;;;;;4891760;29;20060;-77
2022/11/10 19:22:11;;;;;;;6.85;4.22;;;9.80;99.90;;;;;;4883177;29;20053;-77
2022/11/10 19:24:38;;;;;;;11.27;5.85;;;9.80;99.90;;;;;;4882969;29;20057;-79
2022/11/10 19:27:25;;;;;;;19.30;11.20;;;9.80;99.90;;;;;;4891720;29;20077;-78
2022/11/10 19:29:52;;;;;;;20.63;11.60;;;9.70;99.90;;;;;;4886497;29;20052;-77
2022/11/10 19:32:18;;;;;;;19.83;12.70;;;9.70;99.90;;;;;;4886608;29;20048;-77
2022/11/10 19:34:50;;;;;;;18.80;11.07;;;9.70;99.90;;;;;;4884644;29;20116;-77
2022/11/10 19:37:18;;;;;;;24.60;11.32;;;9.70;99.90;;;;;;4886655;29;20057;-77
2022/11/10 19:39:45;;;;;;;19.85;10.88;;;9.70;99.90;;;;;;4889354;29;20061;-78
2022/11/10 19:42:11;;;;;;;17.40;11.57;;;9.70;99.90;;;;;;4891287;29;20136;-78
2022/11/10 19:44:38;;;;;;;16.10;11.35;;;9.70;99.90;;;;;;4880114;29;20064;-78
2022/11/10 19:47:05;;;;;;;18.98;11.27;;;9.70;99.90;;;;;;4881982;29;20519;-78
2022/11/10 19:49:31;;;;;;;22.08;10.68;;;9.60;99.90;;;;;;4889254;29;20049;-77
2022/11/10 19:52:01;;;;;;;19.45;10.95;;;9.60;99.90;;;;;;4888228;29;20777;-77
2022/11/10 19:54:28;;;;;;;19.83;11.57;;;9.50;99.90;;;;;;4889718;29;20057;-79
2022/11/10 19:56:54;;;;;;;14.60;9.93;;;9.60;99.90;;;;;;4885528;29;20503;-78
2022/11/10 19:59:21;;;;;;;20.75;9.68;;;9.50;99.90;;;;;;4883349;29;20060;-77
2022/11/10 20:01:48;;;;;;;12.70;7.57;;;9.50;99.90;;;;;;4885624;29;20077;-78
2022/11/10 20:04:17;;;;;;;13.93;8.25;;;9.50;99.90;;;;;;4888670;29;20400;-78
2022/11/10 20:06:44;;;;;;;9.02;5.80;;;9.50;99.90;;;;;;4887610;29;20452;-78
2022/11/10 20:09:11;;;;;;;10.23;5.30;;;9.50;99.90;;;;;;4893391;29;20048;-78
2022/11/10 20:11:37;;;;;;;6.35;4.25;;;9.50;99.90;;;;;;4893684;29;20568;-78
2022/11/10 20:14:05;;;;;;;9.98;4.63;;;9.40;99.90;;;;;;4892005;29;20044;-78
2022/11/10 20:16:32;;;;;;;10.13;4.15;;;9.40;99.90;;;;;;4893587;29;20060;-78
2022/11/10 20:18:59;;;;;;;8.25;5.05;;;9.40;99.90;;;;;;4889625;29;20045;-77
2022/11/10 20:21:26;;;;;;;11.80;5.00;;;9.40;99.90;;;;;;4889153;29;20052;-78
2022/11/10 20:23:54;;;;;;;6.43;4.00;;;9.40;99.90;;;;;;4884067;29;20049;-78
2022/11/10 20:26:22;;;;;;;9.00;4.03;;;9.40;99.90;;;;;;4890486;29;20068;-77
2022/11/10 20:28:49;;;;;;;13.23;4.22;;;9.30;99.90;;;;;;4888144;29;20049;-78
2022/11/10 20:31:19;;;;;;;7.45;4.45;;;9.30;99.90;;;;;;4883798;29;20064;-78
2022/11/10 20:33:47;;;;;;;8.80;4.68;;;9.30;99.90;;;;;;4885782;29;20557;-78
2022/11/10 20:36:19;;;;;;;6.90;4.70;;;9.20;99.90;;;;;;4890755;29;20053;-78
2022/11/10 20:38:48;;;;;;;10.60;4.85;;;9.20;99.90;;;;;;4885272;29;20561;-78
2022/11/10 20:41:21;;;;;;;13.40;4.93;;;9.20;99.90;;;;;;4893599;29;20048;-78
2022/11/10 20:43:48;;;;;;;7.78;4.10;;;9.20;99.90;;;;;;4891707;29;20053;-79
2022/11/10 20:46:18;;;;;;;11.48;5.07;;;9.10;99.90;;;;;;4889521;29;20514;-78
2022/11/10 20:49:04;;;;;;;9.27;5.32;;;9.10;99.90;;;;;;4889293;29;20052;-77
2022/11/10 20:51:31;;;;;;;9.90;5.15;;;9.10;99.90;;;;;;4895735;29;20052;-78
2022/11/10 20:53:59;;;;;;;10.80;5.07;;;9.10;99.90;;;;;;4902231;29;20150;-79
